sensor_id;sensor_type;location;lat;lon;timestamp;temperature;humidity
13464;DHT22;6804;48.774;9.174;2023-04-03T00:01:17;6.90;99.90
13464;DHT22;6804;48.774;9.174;2023-04-03T00:03:44;7.00;99.90
13464;DHT22;6804;48.774;9.174;2023-04-03T00:06:12;7.00;99.90
13464;DHT22;6804;48.774;9.174;2023-04-03T00:08:40;7.10;99.90
13464;DHT22;6804;48.774;9.174;2023-04-03T00:11:11;7.10;99.90
13464;DHT22;6804;48.774;9.174;2023-04-03T00:13:41;7.20;99.90
13464;DHT22;6804;48.774;9.174;2023-04-03T00:16:09;7.10;99.90
13464;DHT22;6804;48.774;9.174;2023-04-03T00:18:37;7.20;99.90
13464;DHT22;6804;48.774;9.174;2023-04-03T00:21:06;7.20;99.90
13464;DHT22;6804;48.774;9.174;2023-04-03T00:23:36;7.20;99.90
13464;DHT22;6804;48.774;9.174;2023-04-03T00:26:05;7.20;99.90
13464;DHT22;6804;48.774;9.174;2023-04-03T00:28:36;7.20;99.90
13464;DHT22;6804;48.774;9.174;2023-04-03T00:31:04;7.20;99.90
13464;DHT22;6804;48.774;9.174;2023-04-03T00:33:31;7.20;99.90
13464;DHT22;6804;48.774;9.174;2023-04-03T00:36:04;7.20;99.90
13464;DHT22;6804;48.774;9.174;2023-04-03T00:38:40;7.20;99.90
13464;DHT22;6804;48.774;9.174;2023-04-03T00:41:10;7.30;99.90
13464;DHT22;6804;48.774;9.174;2023-04-03T00:43:40;7.20;99.90
13464;DHT22;6804;48.774;9.174;2023-04-03T00:46:09;7.10;99.90
13464;DHT22;6804;48.774;9.174;2023-04-03T00:48:39;7.00;99.90
13464;DHT22;6804;48.774;9.174;2023-04-03T00:51:11;7.00;99.90
13464;DHT22;6804;48.774;9.174;2023-04-03T00:53:41;6.90;99.90
13464;DHT22;6804;48.774;9.174;2023-04-03T00:56:13;6.90;99.90
13464;DHT22;6804;48.774;9.174;2023-04-03T00:58:46;6.90;99.90
13464;DHT22;6804;48.774;9.174;2023-04-03T01:01:22;6.90;99.90
13464;DHT22;6804;48.774;9.174;2023-04-03T01:03:53;6.90;99.90
13464;DHT22;6804;48.774;9.174;2023-04-03T01:06:23;6.90;99.90
13464;DHT22;6804;48.774;9.174;2023-04-03T01:08:52;7.00;99.90
13464;DHT22;6804;48.774;9.174;2023-04-03T01:11:19;7.00;99.90
13464;DHT22;6804;48.774;9.174;2023-04-03T01:13:48;7.00;99.90
13464;DHT22;6804;48.774;9.174;2023-04-03T01:16:19;7.00;99.90
13464;DHT22;6804;48.774;9.174;2023-04-03T01:18:47;6.90;99.90
13464;DHT22;6804;48.774;9.174;2023-04-03T01:24:27;7.00;99.90
13464;DHT22;6804;48.774;9.174;2023-04-03T01:26:58;7.00;99.90
13464;DHT22;6804;48.774;9.174;2023-04-03T01:29:29;7.00;99.90
13464;DHT22;6804;48.774;9.174;2023-04-03T01:32:00;6.90;99.90
13464;DHT22;6804;48.774;9.174;2023-04-03T01:34:28;6.80;99.90
13464;DHT22;6804;48.774;9.174;2023-04-03T01:36:56;6.60;99.90
13464;DHT22;6804;48.774;9.174;2023-04-03T01:39:32;6.40;99.90
13464;DHT22;6804;48.774;9.174;2023-04-03T01:41:59;6.50;99.90
13464;DHT22;6804;48.774;9.174;2023-04-03T01:44:26;6.50;99.90
13464;DHT22;6804;48.774;9.174;2023-04-03T01:46:54;6.70;99.90
13464;DHT22;6804;48.774;9.174;2023-04-03T01:49:22;6.60;99.90
13464;DHT22;6804;48.774;9.174;2023-04-03T01:51:52;6.60;99.90
13464;DHT22;6804;48.774;9.174;2023-04-03T01:54:20;6.60;99.90
13464;DHT22;6804;48.774;9.174;2023-04-03T01:56:51;6.70;99.90
13464;DHT22;6804;48.774;9.174;2023-04-03T01:59:18;6.60;99.90
13464;DHT22;6804;48.774;9.174;2023-04-03T02:01:45;6.70;99.90
13464;DHT22;6804;48.774;9.174;2023-04-03T02:04:13;6.70;99.90
13464;DHT22;6804;48.774;9.174;2023-04-03T02:06:44;6.70;99.90
13464;DHT22;6804;48.774;9.174;2023-04-03T02:09:14;6.70;99.90
13464;DHT22;6804;48.774;9.174;2023-04-03T02:11:44;6.80;99.90
13464;DHT22;6804;48.774;9.174;2023-04-03T02:14:11;6.90;99.90
13464;DHT22;6804;48.774;9.174;2023-04-03T02:16:38;6.80;99.90
13464;DHT22;6804;48.774;9.174;2023-04-03T02:19:06;6.90;99.90
13464;DHT22;6804;48.774;9.174;2023-04-03T02:21:33;6.90;99.90
13464;DHT22;6804;48.774;9.174;2023-04-03T02:24:04;7.00;99.90
13464;DHT22;6804;48.774;9.174;2023-04-03T02:26:34;7.10;99.90
13464;DHT22;6804;48.774;9.174;2023-04-03T02:29:04;7.10;99.90
13464;DHT22;6804;48.774;9.174;2023-04-03T02:31:34;7.10;99.90
13464;DHT22;6804;48.774;9.174;2023-04-03T02:34:02;7.00;99.90
13464;DHT22;6804;48.774;9.174;2023-04-03T02:36:29;6.80;99.90
13464;DHT22;6804;48.774;9.174;2023-04-03T02:38:56;6.80;99.90
13464;DHT22;6804;48.774;9.174;2023-04-03T02:41:25;6.90;99.90
13464;DHT22;6804;48.774;9.174;2023-04-03T02:43:59;6.90;99.90
13464;DHT22;6804;48.774;9.174;2023-04-03T02:46:29;6.80;99.90
13464;DHT22;6804;48.774;9.174;2023-04-03T02:48:56;6.70;99.90
13464;DHT22;6804;48.774;9.174;2023-04-03T02:51:25;6.70;99.90
13464;DHT22;6804;48.774;9.174;2023-04-03T02:53:54;6.80;99.90
13464;DHT22;6804;48.774;9.174;2023-04-03T02:56:22;6.80;99.90
13464;DHT22;6804;48.774;9.174;2023-04-03T02:58:51;6.90;99.90
13464;DHT22;6804;48.774;9.174;2023-04-03T03:01:18;6.90;99.90
13464;DHT22;6804;48.774;9.174;2023-04-03T03:03:45;6.90;99.90
13464;DHT22;6804;48.774;9.174;2023-04-03T03:06:14;6.80;99.90
13464;DHT22;6804;48.774;9.174;2023-04-03T03:08:46;6.80;99.90
13464;DHT22;6804;48.774;9.174;2023-04-03T03:11:14;6.70;99.90
13464;DHT22;6804;48.774;9.174;2023-04-03T03:13:44;6.30;99.90
13464;DHT22;6804;48.774;9.174;2023-04-03T03:16:15;6.20;99.90
13464;DHT22;6804;48.774;9.174;2023-04-03T03:18:45;6.00;99.90
13464;DHT22;6804;48.774;9.174;2023-04-03T03:21:13;6.00;99.90
13464;DHT22;6804;48.774;9.174;2023-04-03T03:23:40;6.10;99.90
13464;DHT22;6804;48.774;9.174;2023-04-03T03:26:09;6.20;99.90
13464;DHT22;6804;48.774;9.174;2023-04-03T03:28:38;6.30;99.90
13464;DHT22;6804;48.774;9.174;2023-04-03T03:31:07;6.40;99.90
13464;DHT22;6804;48.774;9.174;2023-04-03T03:33:39;6.30;99.90
13464;DHT22;6804;48.774;9.174;2023-04-03T03:36:06;6.30;99.90
13464;DHT22;6804;48.774;9.174;2023-04-03T03:38:34;6.30;99.90
13464;DHT22;6804;48.774;9.174;2023-04-03T03:41:01;6.20;99.90
13464;DHT22;6804;48.774;9.174;2023-04-03T03:43:28;6.20;99.90
13464;DHT22;6804;48.774;9.174;2023-04-03T03:45:56;6.30;99.90
13464;DHT22;6804;48.774;9.174;2023-04-03T03:48:26;6.30;99.90
13464;DHT22;6804;48.774;9.174;2023-04-03T03:50:59;6.30;99.90
13464;DHT22;6804;48.774;9.174;2023-04-03T03:53:26;6.10;99.90
13464;DHT22;6804;48.774;9.174;2023-04-03T03:55:53;6.10;99.90
13464;DHT22;6804;48.774;9.174;2023-04-03T03:58:21;6.00;99.90
13464;DHT22;6804;48.774;9.174;2023-04-03T04:00:48;6.00;99.90
13464;DHT22;6804;48.774;9.174;2023-04-03T04:03:18;6.10;99.90
13464;DHT22;6804;48.774;9.174;2023-04-03T04:05:46;6.10;99.90
13464;DHT22;6804;48.774;9.174;2023-04-03T04:08:18;6.20;99.90
13464;DHT22;6804;48.774;9.174;2023-04-03T04:10:47;6.30;99.90
13464;DHT22;6804;48.774;9.174;2023-04-03T04:13:15;6.10;99.90
13464;DHT22;6804;48.774;9.174;2023-04-03T04:15:43;6.10;99.90
13464;DHT22;6804;48.774;9.174;2023-04-03T04:18:10;6.30;99.90
13464;DHT22;6804;48.774;9.174;2023-04-03T04:20:37;6.20;99.90
13464;DHT22;6804;48.774;9.174;2023-04-03T04:23:07;6.10;99.90
13464;DHT22;6804;48.774;9.174;2023-04-03T04:25:36;6.10;99.90
13464;DHT22;6804;48.774;9.174;2023-04-03T04:28:04;6.20;99.90
13464;DHT22;6804;48.774;9.174;2023-04-03T04:30:31;6.30;99.90
13464;DHT22;6804;48.774;9.174;2023-04-03T04:33:01;6.40;99.90
13464;DHT22;6804;48.774;9.174;2023-04-03T04:35:28;6.40;99.90
13464;DHT22;6804;48.774;9.174;2023-04-03T04:37:57;6.40;99.90
13464;DHT22;6804;48.774;9.174;2023-04-03T04:40:24;6.50;99.90
13464;DHT22;6804;48.774;9.174;2023-04-03T04:42:58;6.40;99.90
13464;DHT22;6804;48.774;9.174;2023-04-03T04:45:25;6.30;99.90
13464;DHT22;6804;48.774;9.174;2023-04-03T04:47:58;6.30;99.90
13464;DHT22;6804;48.774;9.174;2023-04-03T04:50:28;6.20;99.90
13464;DHT22;6804;48.774;9.174;2023-04-03T04:52:57;6.20;99.90
13464;DHT22;6804;48.774;9.174;2023-04-03T04:55:25;6.20;99.90
13464;DHT22;6804;48.774;9.174;2023-04-03T04:57:56;6.30;99.90
13464;DHT22;6804;48.774;9.174;2023-04-03T05:00:26;6.40;99.90
13464;DHT22;6804;48.774;9.174;2023-04-03T05:02:54;6.50;99.90
13464;DHT22;6804;48.774;9.174;2023-04-03T05:05:22;6.50;99.90
13464;DHT22;6804;48.774;9.174;2023-04-03T05:07:50;6.50;99.90
13464;DHT22;6804;48.774;9.174;2023-04-03T05:10:17;6.50;99.90
13464;DHT22;6804;48.774;9.174;2023-04-03T05:12:44;6.60;99.90
13464;DHT22;6804;48.774;9.174;2023-04-03T05:15:13;6.60;99.90
13464;DHT22;6804;48.774;9.174;2023-04-03T05:17:43;6.60;99.90
13464;DHT22;6804;48.774;9.174;2023-04-03T05:20:11;6.70;99.90
13464;DHT22;6804;48.774;9.174;2023-04-03T05:22:38;6.80;99.90
13464;DHT22;6804;48.774;9.174;2023-04-03T05:25:06;6.70;99.90
13464;DHT22;6804;48.774;9.174;2023-04-03T05:27:33;6.50;99.90
13464;DHT22;6804;48.774;9.174;2023-04-03T05:30:01;6.60;99.90
13464;DHT22;6804;48.774;9.174;2023-04-03T05:32:30;6.60;99.90
13464;DHT22;6804;48.774;9.174;2023-04-03T05:34:59;6.50;99.90
13464;DHT22;6804;48.774;9.174;2023-04-03T05:37:28;6.50;99.90
13464;DHT22;6804;48.774;9.174;2023-04-03T05:39:59;6.40;99.90
13464;DHT22;6804;48.774;9.174;2023-04-03T05:42:28;6.50;99.90
13464;DHT22;6804;48.774;9.174;2023-04-03T05:44:56;6.50;99.90
13464;DHT22;6804;48.774;9.174;2023-04-03T05:47:23;6.60;99.90
13464;DHT22;6804;48.774;9.174;2023-04-03T05:49:53;6.80;99.90
13464;DHT22;6804;48.774;9.174;2023-04-03T05:52:22;6.90;99.90
13464;DHT22;6804;48.774;9.174;2023-04-03T05:54:50;7.00;99.90
13464;DHT22;6804;48.774;9.174;2023-04-03T05:57:19;7.00;99.90
13464;DHT22;6804;48.774;9.174;2023-04-03T05:59:47;6.90;99.90
13464;DHT22;6804;48.774;9.174;2023-04-03T06:02:19;6.80;99.90
13464;DHT22;6804;48.774;9.174;2023-04-03T06:04:46;6.80;99.90
13464;DHT22;6804;48.774;9.174;2023-04-03T06:07:19;6.90;99.90
13464;DHT22;6804;48.774;9.174;2023-04-03T06:09:51;6.80;99.90
13464;DHT22;6804;48.774;9.174;2023-04-03T06:12:21;6.50;99.90
13464;DHT22;6804;48.774;9.174;2023-04-03T06:14:49;6.50;99.90
13464;DHT22;6804;48.774;9.174;2023-04-03T06:17:17;6.50;99.90
13464;DHT22;6804;48.774;9.174;2023-04-03T06:19:47;6.60;99.90
13464;DHT22;6804;48.774;9.174;2023-04-03T06:22:21;6.70;99.90
13464;DHT22;6804;48.774;9.174;2023-04-03T06:24:54;6.70;99.90
13464;DHT22;6804;48.774;9.174;2023-04-03T06:27:21;6.70;99.90
13464;DHT22;6804;48.774;9.174;2023-04-03T06:29:52;6.70;99.90
13464;DHT22;6804;48.774;9.174;2023-04-03T06:32:23;6.80;99.90
13464;DHT22;6804;48.774;9.174;2023-04-03T06:34:50;6.80;99.90
13464;DHT22;6804;48.774;9.174;2023-04-03T06:37:26;6.70;99.90
13464;DHT22;6804;48.774;9.174;2023-04-03T06:39:54;6.60;99.90
13464;DHT22;6804;48.774;9.174;2023-04-03T06:42:22;6.70;99.90
13464;DHT22;6804;48.774;9.174;2023-04-03T06:44:52;6.60;99.90
13464;DHT22;6804;48.774;9.174;2023-04-03T06:47:33;6.70;99.90
13464;DHT22;6804;48.774;9.174;2023-04-03T06:50:00;6.70;99.90
13464;DHT22;6804;48.774;9.174;2023-04-03T06:52:32;6.70;99.90
13464;DHT22;6804;48.774;9.174;2023-04-03T06:55:00;6.80;99.90
13464;DHT22;6804;48.774;9.174;2023-04-03T06:57:28;6.80;99.90
13464;DHT22;6804;48.774;9.174;2023-04-03T06:59:58;6.80;99.90
13464;DHT22;6804;48.774;9.174;2023-04-03T07:02:25;6.80;99.90
13464;DHT22;6804;48.774;9.174;2023-04-03T07:04:53;6.80;99.90
13464;DHT22;6804;48.774;9.174;2023-04-03T07:07:22;6.70;99.90
13464;DHT22;6804;48.774;9.174;2023-04-03T07:09:51;6.80;99.90
13464;DHT22;6804;48.774;9.174;2023-04-03T07:12:22;6.80;99.90
13464;DHT22;6804;48.774;9.174;2023-04-03T07:14:52;6.80;99.90
13464;DHT22;6804;48.774;9.174;2023-04-03T07:17:21;6.80;99.90
13464;DHT22;6804;48.774;9.174;2023-04-03T07:19:53;6.90;99.90
13464;DHT22;6804;48.774;9.174;2023-04-03T07:22:23;6.90;99.90
13464;DHT22;6804;48.774;9.174;2023-04-03T07:24:55;6.90;99.90
13464;DHT22;6804;48.774;9.174;2023-04-03T07:27:22;6.90;99.90
13464;DHT22;6804;48.774;9.174;2023-04-03T07:29:51;6.90;99.90
13464;DHT22;6804;48.774;9.174;2023-04-03T07:32:19;6.90;99.90
13464;DHT22;6804;48.774;9.174;2023-04-03T07:34:49;7.00;99.90
13464;DHT22;6804;48.774;9.174;2023-04-03T07:37:17;7.00;99.90
13464;DHT22;6804;48.774;9.174;2023-04-03T07:39:46;7.00;99.90
13464;DHT22;6804;48.774;9.174;2023-04-03T07:42:15;7.10;99.90
13464;DHT22;6804;48.774;9.174;2023-04-03T07:44:43;6.90;99.90
13464;DHT22;6804;48.774;9.174;2023-04-03T07:47:10;6.80;99.90
13464;DHT22;6804;48.774;9.174;2023-04-03T07:49:40;6.80;99.90
13464;DHT22;6804;48.774;9.174;2023-04-03T07:52:18;7.00;99.90
13464;DHT22;6804;48.774;9.174;2023-04-03T07:54:46;7.10;99.90
13464;DHT22;6804;48.774;9.174;2023-04-03T07:57:15;7.00;99.90
13464;DHT22;6804;48.774;9.174;2023-04-03T07:59:42;7.00;99.90
13464;DHT22;6804;48.774;9.174;2023-04-03T08:02:10;7.10;99.90
13464;DHT22;6804;48.774;9.174;2023-04-03T08:04:41;7.10;99.90
13464;DHT22;6804;48.774;9.174;2023-04-03T08:07:14;7.10;99.90
13464;DHT22;6804;48.774;9.174;2023-04-03T08:09:43;7.20;99.90
13464;DHT22;6804;48.774;9.174;2023-04-03T08:12:10;7.30;99.90
13464;DHT22;6804;48.774;9.174;2023-04-03T08:14:44;7.40;99.90
13464;DHT22;6804;48.774;9.174;2023-04-03T08:17:11;7.40;99.90
13464;DHT22;6804;48.774;9.174;2023-04-03T08:19:42;7.40;99.90
13464;DHT22;6804;48.774;9.174;2023-04-03T08:22:10;7.40;99.90
13464;DHT22;6804;48.774;9.174;2023-04-03T08:24:43;7.50;99.90
13464;DHT22;6804;48.774;9.174;2023-04-03T08:27:11;7.50;99.90
13464;DHT22;6804;48.774;9.174;2023-04-03T08:29:39;7.40;99.90
13464;DHT22;6804;48.774;9.174;2023-04-03T08:32:10;7.40;99.90
13464;DHT22;6804;48.774;9.174;2023-04-03T08:34:40;7.40;99.90
13464;DHT22;6804;48.774;9.174;2023-04-03T08:37:09;7.40;99.90
13464;DHT22;6804;48.774;9.174;2023-04-03T08:39:37;7.40;99.90
13464;DHT22;6804;48.774;9.174;2023-04-03T08:42:14;7.20;99.90
13464;DHT22;6804;48.774;9.174;2023-04-03T08:44:47;6.90;99.90
13464;DHT22;6804;48.774;9.174;2023-04-03T08:47:28;7.00;99.90
13464;DHT22;6804;48.774;9.174;2023-04-03T08:50:07;7.00;99.90
13464;DHT22;6804;48.774;9.174;2023-04-03T08:52:38;7.10;99.90
13464;DHT22;6804;48.774;9.174;2023-04-03T08:55:19;7.10;99.90
13464;DHT22;6804;48.774;9.174;2023-04-03T08:57:57;7.20;99.90
13464;DHT22;6804;48.774;9.174;2023-04-03T09:00:30;7.40;99.90
13464;DHT22;6804;48.774;9.174;2023-04-03T09:02:59;7.40;99.90
13464;DHT22;6804;48.774;9.174;2023-04-03T09:05:39;7.50;99.90
13464;DHT22;6804;48.774;9.174;2023-04-03T09:08:22;7.60;99.90
13464;DHT22;6804;48.774;9.174;2023-04-03T09:11:01;7.70;99.90
13464;DHT22;6804;48.774;9.174;2023-04-03T09:13:33;7.80;99.90
13464;DHT22;6804;48.774;9.174;2023-04-03T09:16:18;7.90;99.90
13464;DHT22;6804;48.774;9.174;2023-04-03T09:18:55;8.10;99.90
13464;DHT22;6804;48.774;9.174;2023-04-03T09:21:30;8.20;99.90
13464;DHT22;6804;48.774;9.174;2023-04-03T09:24:03;8.20;99.90
13464;DHT22;6804;48.774;9.174;2023-04-03T09:26:36;8.30;99.90
13464;DHT22;6804;48.774;9.174;2023-04-03T09:29:07;8.30;99.90
13464;DHT22;6804;48.774;9.174;2023-04-03T09:31:38;7.80;99.90
13464;DHT22;6804;48.774;9.174;2023-04-03T09:34:20;7.70;99.90
13464;DHT22;6804;48.774;9.174;2023-04-03T09:36:50;7.70;99.90
13464;DHT22;6804;48.774;9.174;2023-04-03T09:39:21;7.50;99.90
13464;DHT22;6804;48.774;9.174;2023-04-03T09:41:58;7.50;99.90
13464;DHT22;6804;48.774;9.174;2023-04-03T09:44:31;7.60;99.90
13464;DHT22;6804;48.774;9.174;2023-04-03T09:46:59;7.80;99.90
13464;DHT22;6804;48.774;9.174;2023-04-03T09:49:32;7.80;99.90
13464;DHT22;6804;48.774;9.174;2023-04-03T09:52:18;8.00;99.90
13464;DHT22;6804;48.774;9.174;2023-04-03T09:54:46;8.10;99.90
13464;DHT22;6804;48.774;9.174;2023-04-03T09:57:14;8.20;99.90
13464;DHT22;6804;48.774;9.174;2023-04-03T09:59:46;8.10;99.90
13464;DHT22;6804;48.774;9.174;2023-04-03T10:02:28;8.00;99.90
13464;DHT22;6804;48.774;9.174;2023-04-03T10:05:03;8.00;99.90
13464;DHT22;6804;48.774;9.174;2023-04-03T10:07:35;8.00;99.90
13464;DHT22;6804;48.774;9.174;2023-04-03T10:10:17;8.00;99.90
13464;DHT22;6804;48.774;9.174;2023-04-03T10:13:05;8.00;99.90
13464;DHT22;6804;48.774;9.174;2023-04-03T10:15:38;8.00;99.90
13464;DHT22;6804;48.774;9.174;2023-04-03T10:18:29;8.00;99.90
13464;DHT22;6804;48.774;9.174;2023-04-03T10:21:06;8.00;99.90
13464;DHT22;6804;48.774;9.174;2023-04-03T10:23:40;8.00;99.90
13464;DHT22;6804;48.774;9.174;2023-04-03T10:26:17;7.90;99.90
13464;DHT22;6804;48.774;9.174;2023-04-03T10:28:57;7.80;99.90
13464;DHT22;6804;48.774;9.174;2023-04-03T10:31:33;7.90;99.90
13464;DHT22;6804;48.774;9.174;2023-04-03T10:34:22;8.00;99.90
13464;DHT22;6804;48.774;9.174;2023-04-03T10:37:04;8.10;99.90
13464;DHT22;6804;48.774;9.174;2023-04-03T10:39:44;8.10;99.90
13464;DHT22;6804;48.774;9.174;2023-04-03T10:42:20;8.00;99.90
13464;DHT22;6804;48.774;9.174;2023-04-03T10:45:16;8.00;99.90
13464;DHT22;6804;48.774;9.174;2023-04-03T10:47:53;8.00;99.90
13464;DHT22;6804;48.774;9.174;2023-04-03T10:50:36;7.90;99.90
13464;DHT22;6804;48.774;9.174;2023-04-03T10:53:14;8.00;99.90
13464;DHT22;6804;48.774;9.174;2023-04-03T10:55:53;8.00;99.90
13464;DHT22;6804;48.774;9.174;2023-04-03T10:58:29;8.10;99.90
13464;DHT22;6804;48.774;9.174;2023-04-03T11:01:06;8.10;99.90
13464;DHT22;6804;48.774;9.174;2023-04-03T11:03:38;8.00;99.90
13464;DHT22;6804;48.774;9.174;2023-04-03T11:06:11;7.70;99.90
13464;DHT22;6804;48.774;9.174;2023-04-03T11:08:45;7.50;99.90
13464;DHT22;6804;48.774;9.174;2023-04-03T11:11:16;7.40;99.90
13464;DHT22;6804;48.774;9.174;2023-04-03T11:13:49;7.60;99.90
13464;DHT22;6804;48.774;9.174;2023-04-03T11:16:28;7.80;99.90
13464;DHT22;6804;48.774;9.174;2023-04-03T11:19:01;7.90;99.50
13464;DHT22;6804;48.774;9.174;2023-04-03T11:21:34;8.00;99.20
13464;DHT22;6804;48.774;9.174;2023-04-03T11:24:14;8.00;99.30
13464;DHT22;6804;48.774;9.174;2023-04-03T11:26:47;8.20;99.40
13464;DHT22;6804;48.774;9.174;2023-04-03T11:29:22;8.20;98.20
13464;DHT22;6804;48.774;9.174;2023-04-03T11:32:09;8.10;98.70
13464;DHT22;6804;48.774;9.174;2023-04-03T11:34:41;8.10;98.10
13464;DHT22;6804;48.774;9.174;2023-04-03T11:37:21;8.00;98.40
13464;DHT22;6804;48.774;9.174;2023-04-03T11:39:56;8.00;98.80
13464;DHT22;6804;48.774;9.174;2023-04-03T11:42:32;8.00;99.20
13464;DHT22;6804;48.774;9.174;2023-04-03T11:45:24;8.10;98.90
13464;DHT22;6804;48.774;9.174;2023-04-03T11:47:56;8.20;99.00
13464;DHT22;6804;48.774;9.174;2023-04-03T11:50:45;8.30;98.90
13464;DHT22;6804;48.774;9.174;2023-04-03T11:53:35;8.30;98.90
13464;DHT22;6804;48.774;9.174;2023-04-03T11:56:33;8.10;98.50
13464;DHT22;6804;48.774;9.174;2023-04-03T11:59:19;8.10;98.10
13464;DHT22;6804;48.774;9.174;2023-04-03T12:01:50;8.00;98.20
13464;DHT22;6804;48.774;9.174;2023-04-03T12:04:22;7.80;97.80
13464;DHT22;6804;48.774;9.174;2023-04-03T12:10:14;7.80;97.80
13464;DHT22;6804;48.774;9.174;2023-04-03T12:12:58;7.80;97.80
13464;DHT22;6804;48.774;9.174;2023-04-03T12:15:49;7.90;98.70
13464;DHT22;6804;48.774;9.174;2023-04-03T12:18:56;8.00;98.70
13464;DHT22;6804;48.774;9.174;2023-04-03T12:24:35;8.20;98.70
13464;DHT22;6804;48.774;9.174;2023-04-03T12:27:29;8.20;98.00
13464;DHT22;6804;48.774;9.174;2023-04-03T12:30:13;8.20;98.20
13464;DHT22;6804;48.774;9.174;2023-04-03T12:32:57;8.30;98.30
13464;DHT22;6804;48.774;9.174;2023-04-03T12:35:34;8.40;97.90
13464;DHT22;6804;48.774;9.174;2023-04-03T12:38:35;8.40;97.60
13464;DHT22;6804;48.774;9.174;2023-04-03T12:41:18;8.40;97.00
13464;DHT22;6804;48.774;9.174;2023-04-03T12:43:54;8.40;98.00
13464;DHT22;6804;48.774;9.174;2023-04-03T12:46:37;8.40;97.80
13464;DHT22;6804;48.774;9.174;2023-04-03T12:49:23;8.40;96.90
13464;DHT22;6804;48.774;9.174;2023-04-03T12:51:57;8.30;96.50
13464;DHT22;6804;48.774;9.174;2023-04-03T12:54:32;8.20;96.90
13464;DHT22;6804;48.774;9.174;2023-04-03T12:57:11;8.10;97.40
13464;DHT22;6804;48.774;9.174;2023-04-03T12:59:46;8.20;96.80
13464;DHT22;6804;48.774;9.174;2023-04-03T13:02:24;8.30;96.70
13464;DHT22;6804;48.774;9.174;2023-04-03T13:04:58;8.30;96.50
13464;DHT22;6804;48.774;9.174;2023-04-03T13:07:28;8.30;96.80
13464;DHT22;6804;48.774;9.174;2023-04-03T13:10:09;8.40;97.00
13464;DHT22;6804;48.774;9.174;2023-04-03T13:12:48;8.50;96.60
13464;DHT22;6804;48.774;9.174;2023-04-03T13:15:21;8.70;97.00
13464;DHT22;6804;48.774;9.174;2023-04-03T13:17:53;8.90;96.50
13464;DHT22;6804;48.774;9.174;2023-04-03T13:20:27;9.00;95.20
13464;DHT22;6804;48.774;9.174;2023-04-03T13:22:58;8.90;94.20
13464;DHT22;6804;48.774;9.174;2023-04-03T13:25:32;8.70;95.70
13464;DHT22;6804;48.774;9.174;2023-04-03T13:28:09;8.80;95.20
13464;DHT22;6804;48.774;9.174;2023-04-03T13:30:39;8.90;94.90
13464;DHT22;6804;48.774;9.174;2023-04-03T13:33:22;8.90;95.00
13464;DHT22;6804;48.774;9.174;2023-04-03T13:35:56;8.80;95.30
13464;DHT22;6804;48.774;9.174;2023-04-03T13:38:30;8.90;95.10
13464;DHT22;6804;48.774;9.174;2023-04-03T13:41:01;9.00;94.90
13464;DHT22;6804;48.774;9.174;2023-04-03T13:43:32;9.10;94.30
13464;DHT22;6804;48.774;9.174;2023-04-03T13:46:23;9.20;94.60
13464;DHT22;6804;48.774;9.174;2023-04-03T13:48:56;9.10;93.50
13464;DHT22;6804;48.774;9.174;2023-04-03T13:51:26;8.90;94.10
13464;DHT22;6804;48.774;9.174;2023-04-03T13:53:56;8.70;93.50
13464;DHT22;6804;48.774;9.174;2023-04-03T13:56:27;8.70;93.80
13464;DHT22;6804;48.774;9.174;2023-04-03T13:59:04;8.70;93.50
13464;DHT22;6804;48.774;9.174;2023-04-03T14:01:41;8.70;93.00
13464;DHT22;6804;48.774;9.174;2023-04-03T14:04:21;8.80;93.50
13464;DHT22;6804;48.774;9.174;2023-04-03T14:06:52;8.70;93.70
13464;DHT22;6804;48.774;9.174;2023-04-03T14:09:32;8.70;93.50
13464;DHT22;6804;48.774;9.174;2023-04-03T14:12:02;8.70;93.50
13464;DHT22;6804;48.774;9.174;2023-04-03T14:14:34;8.70;94.40
13464;DHT22;6804;48.774;9.174;2023-04-03T14:17:14;8.60;93.80
13464;DHT22;6804;48.774;9.174;2023-04-03T14:19:44;8.80;94.10
13464;DHT22;6804;48.774;9.174;2023-04-03T14:24:58;8.70;94.30
13464;DHT22;6804;48.774;9.174;2023-04-03T14:27:36;8.80;94.40
13464;DHT22;6804;48.774;9.174;2023-04-03T14:30:11;8.70;93.40
13464;DHT22;6804;48.774;9.174;2023-04-03T14:32:40;8.70;93.70
13464;DHT22;6804;48.774;9.174;2023-04-03T14:35:13;8.60;94.10
13464;DHT22;6804;48.774;9.174;2023-04-03T14:37:40;8.60;93.90
13464;DHT22;6804;48.774;9.174;2023-04-03T14:40:17;8.70;93.60
13464;DHT22;6804;48.774;9.174;2023-04-03T14:42:45;9.00;94.20
13464;DHT22;6804;48.774;9.174;2023-04-03T14:45:19;9.20;94.00
13464;DHT22;6804;48.774;9.174;2023-04-03T14:47:47;9.30;92.30
13464;DHT22;6804;48.774;9.174;2023-04-03T14:50:23;9.50;92.50
13464;DHT22;6804;48.774;9.174;2023-04-03T14:52:53;9.50;92.30
13464;DHT22;6804;48.774;9.174;2023-04-03T14:55:23;9.60;92.50
13464;DHT22;6804;48.774;9.174;2023-04-03T14:57:53;9.60;92.20
13464;DHT22;6804;48.774;9.174;2023-04-03T15:00:22;9.30;92.20
13464;DHT22;6804;48.774;9.174;2023-04-03T15:02:52;9.10;92.40
13464;DHT22;6804;48.774;9.174;2023-04-03T15:05:23;9.10;92.20
13464;DHT22;6804;48.774;9.174;2023-04-03T15:07:53;9.10;92.10
13464;DHT22;6804;48.774;9.174;2023-04-03T15:10:24;9.10;92.00
13464;DHT22;6804;48.774;9.174;2023-04-03T15:12:52;9.20;92.50
13464;DHT22;6804;48.774;9.174;2023-04-03T15:15:27;9.20;92.30
13464;DHT22;6804;48.774;9.174;2023-04-03T15:17:59;9.20;91.80
13464;DHT22;6804;48.774;9.174;2023-04-03T15:20:29;9.10;92.10
13464;DHT22;6804;48.774;9.174;2023-04-03T15:23:03;9.30;92.30
13464;DHT22;6804;48.774;9.174;2023-04-03T15:25:32;9.40;92.40
13464;DHT22;6804;48.774;9.174;2023-04-03T15:28:03;9.40;90.60
13464;DHT22;6804;48.774;9.174;2023-04-03T15:30:36;9.30;91.30
13464;DHT22;6804;48.774;9.174;2023-04-03T15:33:12;9.40;90.80
13464;DHT22;6804;48.774;9.174;2023-04-03T15:35:43;9.30;89.50
13464;DHT22;6804;48.774;9.174;2023-04-03T15:38:13;8.80;90.00
13464;DHT22;6804;48.774;9.174;2023-04-03T15:40:42;8.60;90.40
13464;DHT22;6804;48.774;9.174;2023-04-03T15:43:13;8.60;91.00
13464;DHT22;6804;48.774;9.174;2023-04-03T15:45:41;8.70;91.20
13464;DHT22;6804;48.774;9.174;2023-04-03T15:48:11;8.80;91.60
13464;DHT22;6804;48.774;9.174;2023-04-03T15:50:39;8.80;90.90
13464;DHT22;6804;48.774;9.174;2023-04-03T15:53:12;8.80;90.80
13464;DHT22;6804;48.774;9.174;2023-04-03T15:55:42;8.90;91.30
13464;DHT22;6804;48.774;9.174;2023-04-03T15:58:10;8.90;90.90
13464;DHT22;6804;48.774;9.174;2023-04-03T16:00:41;8.90;91.10
13464;DHT22;6804;48.774;9.174;2023-04-03T16:03:11;9.00;90.70
13464;DHT22;6804;48.774;9.174;2023-04-03T16:05:43;8.80;90.00
13464;DHT22;6804;48.774;9.174;2023-04-03T16:08:13;8.70;91.20
13464;DHT22;6804;48.774;9.174;2023-04-03T16:10:41;8.80;91.10
13464;DHT22;6804;48.774;9.174;2023-04-03T16:13:16;8.80;90.20
13464;DHT22;6804;48.774;9.174;2023-04-03T16:15:43;8.50;90.10
13464;DHT22;6804;48.774;9.174;2023-04-03T16:18:13;8.40;90.50
13464;DHT22;6804;48.774;9.174;2023-04-03T16:20:44;8.60;91.10
13464;DHT22;6804;48.774;9.174;2023-04-03T16:23:13;8.80;90.60
13464;DHT22;6804;48.774;9.174;2023-04-03T16:25:41;8.90;90.70
13464;DHT22;6804;48.774;9.174;2023-04-03T16:28:12;9.00;90.00
13464;DHT22;6804;48.774;9.174;2023-04-03T16:30:40;9.00;88.10
13464;DHT22;6804;48.774;9.174;2023-04-03T16:33:09;9.00;87.90
13464;DHT22;6804;48.774;9.174;2023-04-03T16:35:37;9.00;88.60
13464;DHT22;6804;48.774;9.174;2023-04-03T16:38:15;8.90;87.70
13464;DHT22;6804;48.774;9.174;2023-04-03T16:40:44;8.90;88.60
13464;DHT22;6804;48.774;9.174;2023-04-03T16:43:12;8.90;87.30
13464;DHT22;6804;48.774;9.174;2023-04-03T16:45:46;9.00;89.20